Aviation Digital Data Service (ADDS)

Output produced by METARs form (1748 UTC 21 September 2019)
found at http://aviationweather.gov/metar/data/
 
KDFW 211730Z 2118/2224 17014KT P6SM SCT025 BKN050 
     FM220100 16010KT P6SM SCT200 
     FM220700 17012KT P6SM BKN180 
     FM221100 18011KT P6SM BKN025 
     FM221800 19013KT P6SM SCT120